createdAt,value
2023-04-21T00:01:21.019Z,99.90
2023-04-21T00:03:51.044Z,99.90
2023-04-21T00:06:23.134Z,99.90
2023-04-21T00:08:52.288Z,99.90
2023-04-21T00:11:21.045Z,99.90
2023-04-21T00:13:49.810Z,99.90
2023-04-21T00:16:20.010Z,99.90
2023-04-21T00:18:49.424Z,99.90
2023-04-21T00:21:18.740Z,99.90
2023-04-21T00:23:50.242Z,99.90
2023-04-21T00:26:19.031Z,1.00
2023-04-21T00:28:47.746Z,1.00
2023-04-21T00:31:16.510Z,1.00
2023-04-21T00:33:46.654Z,99.90
2023-04-21T00:36:15.409Z,99.90
2023-04-21T00:38:44.137Z,99.90
2023-04-21T00:41:12.798Z,99.90
2023-04-21T00:44:02.598Z,99.90
2023-04-21T00:46:31.306Z,99.90
2023-04-21T00:49:02.250Z,99.90
2023-04-21T00:51:31.864Z,99.90
2023-04-21T00:54:01.886Z,99.90
2023-04-21T00:56:33.424Z,99.90
2023-04-21T00:59:03.598Z,99.90
2023-04-21T01:01:34.527Z,99.90
2023-04-21T01:04:06.328Z,99.90
2023-04-21T01:06:35.498Z,1.00
2023-04-21T01:09:04.895Z,1.00
2023-04-21T01:11:33.515Z,1.00
2023-04-21T01:14:02.378Z,1.00
2023-04-21T01:16:32.933Z,99.90
2023-04-21T01:19:05.373Z,1.00
2023-04-21T01:21:41.935Z,99.90
2023-04-21T01:24:11.863Z,99.90
2023-04-21T01:26:40.727Z,99.90
2023-04-21T01:29:09.429Z,90.10
2023-04-21T01:31:38.238Z,99.90
2023-04-21T01:34:07.209Z,99.90
2023-04-21T01:36:37.492Z,99.90
2023-04-21T01:39:07.621Z,54.60
2023-04-21T01:41:36.375Z,99.90
2023-04-21T01:44:05.216Z,99.90
2023-04-21T01:46:34.175Z,99.90
2023-04-21T01:49:03.121Z,97.80
2023-04-21T01:51:31.907Z,24.80
2023-04-21T01:54:00.678Z,1.00
2023-04-21T02:09:16.182Z,99.90
2023-04-21T02:11:45.086Z,99.90
2023-04-21T02:14:14.003Z,99.90
2023-04-21T02:16:42.876Z,1.00
2023-04-21T02:19:12.117Z,13.50
2023-04-21T02:21:40.875Z,1.00
2023-04-21T02:24:09.859Z,1.00
2023-04-21T02:26:40.153Z,1.00
2023-04-21T02:29:09.550Z,99.90
2023-04-21T02:31:54.351Z,99.90
2023-04-21T02:34:26.584Z,99.90
2023-04-21T02:36:55.612Z,99.90
2023-04-21T02:39:24.506Z,5.50
2023-04-21T02:41:54.841Z,1.00
2023-04-21T02:44:23.693Z,1.00
2023-04-21T02:46:52.768Z,1.00
2023-04-21T02:49:21.911Z,1.00
2023-04-21T02:51:50.961Z,1.00
2023-04-21T02:54:19.785Z,1.00
2023-04-21T02:56:48.526Z,1.00
2023-04-21T02:59:19.101Z,1.00
2023-04-21T03:01:49.446Z,1.00
2023-04-21T03:04:20.157Z,1.00
2023-04-21T03:06:49.092Z,1.00
2023-04-21T03:09:18.000Z,99.90
2023-04-21T03:11:46.971Z,1.00
2023-04-21T03:14:15.887Z,1.00
2023-04-21T03:16:47.563Z,99.90
2023-04-21T03:19:16.544Z,1.00
2023-04-21T03:21:45.689Z,99.90
2023-04-21T03:24:14.490Z,99.90
2023-04-21T03:26:43.302Z,99.90
2023-04-21T03:29:12.010Z,1.00
2023-04-21T03:31:40.853Z,99.90
2023-04-21T03:34:11.212Z,2.90
2023-04-21T03:36:40.034Z,99.90
2023-04-21T03:39:19.073Z,99.90
2023-04-21T03:41:48.803Z,1.00
2023-04-21T03:44:18.098Z,1.00
2023-04-21T03:46:46.993Z,1.00
2023-04-21T03:49:17.304Z,1.00
2023-04-21T03:51:46.087Z,99.90
2023-04-21T03:54:15.007Z,99.90
2023-04-21T03:56:43.912Z,99.90
2023-04-21T03:59:12.688Z,99.90
2023-04-21T04:01:42.521Z,15.50
2023-04-21T04:04:11.791Z,99.90
2023-04-21T04:06:42.259Z,99.90
2023-04-21T04:09:11.285Z,1.00
2023-04-21T04:11:40.145Z,59.60
2023-04-21T04:14:09.062Z,99.90
2023-04-21T04:16:37.976Z,1.00
2023-04-21T04:19:06.885Z,1.00
2023-04-21T04:21:36.100Z,1.00
2023-04-21T04:24:06.670Z,1.00
2023-04-21T04:26:35.788Z,99.90
2023-04-21T04:29:06.343Z,99.90
2023-04-21T04:31:35.217Z,99.90
2023-04-21T04:34:04.244Z,99.90
2023-04-21T04:36:33.862Z,99.90
2023-04-21T04:39:02.726Z,99.90
2023-04-21T04:41:34.309Z,99.90
2023-04-21T04:44:05.482Z,18.60
2023-04-21T04:46:34.574Z,1.00
2023-04-21T04:49:03.688Z,1.00
2023-04-21T04:51:32.973Z,1.00
2023-04-21T04:54:01.825Z,1.00
2023-04-21T04:56:33.436Z,1.00
2023-04-21T04:59:02.359Z,1.00
2023-04-21T05:01:31.705Z,1.00
2023-04-21T05:04:03.807Z,99.90
2023-04-21T05:06:33.105Z,99.90
2023-04-21T05:09:02.056Z,99.90
2023-04-21T05:11:30.877Z,29.60
2023-04-21T05:14:01.421Z,1.00
2023-04-21T05:16:30.685Z,1.00
2023-04-21T05:19:04.580Z,99.90
2023-04-21T05:21:34.791Z,99.90
2023-04-21T05:24:03.806Z,99.90
2023-04-21T05:26:32.594Z,99.90
2023-04-21T05:29:03.440Z,1.00
2023-04-21T05:31:33.384Z,99.90
2023-04-21T05:34:04.848Z,99.90
2023-04-21T05:36:34.548Z,40.70
2023-04-21T05:39:03.992Z,1.00
2023-04-21T05:41:33.675Z,1.00
2023-04-21T05:44:04.473Z,1.00
2023-04-21T05:46:35.158Z,99.90
2023-04-21T05:49:04.172Z,99.90
2023-04-21T05:51:33.195Z,99.90
2023-04-21T05:54:02.405Z,99.90
2023-04-21T05:56:31.289Z,99.90
2023-04-21T05:59:00.139Z,99.90
2023-04-21T06:01:30.387Z,99.90
2023-04-21T06:03:59.318Z,99.90
2023-04-21T06:06:28.689Z,83.70
2023-04-21T06:08:57.896Z,62.80
2023-04-21T06:11:26.767Z,1.00
2023-04-21T06:13:58.621Z,1.00
2023-04-21T06:16:28.248Z,1.00
2023-04-21T06:18:59.303Z,1.00
2023-04-21T06:21:28.273Z,1.00
2023-04-21T06:23:57.722Z,1.00
2023-04-21T06:26:26.601Z,1.00
2023-04-21T06:28:55.829Z,1.00
2023-04-21T06:34:59.340Z,1.00
2023-04-21T06:37:28.889Z,1.00
2023-04-21T06:39:58.938Z,1.00
2023-04-21T06:42:28.079Z,1.00
2023-04-21T06:45:05.531Z,1.00
2023-04-21T06:48:02.996Z,1.00
2023-04-21T06:50:40.634Z,1.00
2023-04-21T06:53:20.878Z,1.00
2023-04-21T06:55:58.884Z,1.00
2023-04-21T06:58:29.207Z,1.00
2023-04-21T07:01:06.679Z,1.00
2023-04-21T07:03:58.465Z,1.00
2023-04-21T07:06:32.161Z,1.00
2023-04-21T07:09:01.213Z,1.00
2023-04-21T07:39:12.059Z,1.00
2023-04-21T07:41:41.034Z,1.00
2023-04-21T07:44:10.166Z,1.00
2023-04-21T08:15:08.682Z,1.00
2023-04-21T08:17:38.941Z,1.00
2023-04-21T08:20:09.753Z,1.00
2023-04-21T08:22:39.681Z,1.00
2023-04-21T08:25:09.903Z,1.00
2023-04-21T08:27:40.963Z,1.00
2023-04-21T08:30:13.391Z,1.00
2023-04-21T08:32:42.429Z,1.00
2023-04-21T08:35:11.954Z,1.00
2023-04-21T08:37:42.135Z,1.00
2023-04-21T08:40:12.122Z,1.00
2023-04-21T08:42:41.492Z,1.00
2023-04-21T08:45:13.290Z,1.00
2023-04-21T08:47:43.629Z,1.00
2023-04-21T08:50:15.477Z,1.00
2023-04-21T08:52:45.145Z,1.00
2023-04-21T08:55:15.873Z,1.00
2023-04-21T08:57:44.707Z,1.00
2023-04-21T09:00:16.847Z,1.00
2023-04-21T09:03:02.156Z,1.00
2023-04-21T09:05:33.815Z,1.00
2023-04-21T09:08:13.444Z,1.00
2023-04-21T09:10:46.750Z,1.00
2023-04-21T09:13:15.855Z,1.00
2023-04-21T09:15:48.338Z,1.00
2023-04-21T09:18:19.143Z,1.00
2023-04-21T09:20:50.237Z,1.00
2023-04-21T09:23:19.566Z,1.00
2023-04-21T09:25:49.024Z,1.00
2023-04-21T09:28:18.569Z,1.00
2023-04-21T09:30:50.601Z,1.00
2023-04-21T09:33:29.081Z,1.00
2023-04-21T09:36:03.538Z,1.00
2023-04-21T09:38:32.918Z,1.00
2023-04-21T09:41:02.485Z,1.00
2023-04-21T09:43:31.388Z,1.00
2023-04-21T09:46:04.568Z,1.00
2023-04-21T09:48:37.230Z,1.00
2023-04-21T09:53:41.941Z,1.00
2023-04-21T09:56:14.152Z,1.00
2023-04-21T09:58:48.385Z,1.00
2023-04-21T10:01:19.268Z,1.00
2023-04-21T10:03:50.879Z,1.00
2023-04-21T10:06:20.499Z,1.00
2023-04-21T10:08:51.305Z,1.00
2023-04-21T10:11:20.844Z,1.00
2023-04-21T10:13:49.972Z,1.00
2023-04-21T10:16:22.955Z,1.00
2023-04-21T10:18:51.867Z,1.00
2023-04-21T10:21:24.759Z,1.00
2023-04-21T10:23:55.042Z,1.00
2023-04-21T10:26:26.004Z,1.00
2023-04-21T10:28:56.392Z,1.00
2023-04-21T10:31:32.467Z,1.00
2023-04-21T10:34:21.306Z,1.00
2023-04-21T10:37:18.344Z,1.00
2023-04-21T10:39:58.662Z,1.00
2023-04-21T10:42:35.741Z,1.00
2023-04-21T10:45:13.745Z,1.00
2023-04-21T10:47:49.601Z,1.00
2023-04-21T10:50:26.019Z,1.00
2023-04-21T10:53:10.143Z,1.00
2023-04-21T10:55:40.304Z,1.00
2023-04-21T10:58:10.817Z,1.00
2023-04-21T11:00:41.006Z,1.00
2023-04-21T11:03:12.386Z,1.00
2023-04-21T11:05:43.299Z,1.00
2023-04-21T11:08:15.108Z,1.00
2023-04-21T11:10:46.042Z,1.00
2023-04-21T11:13:15.627Z,1.00
2023-04-21T11:15:57.675Z,1.00
2023-04-21T11:18:40.254Z,1.00
2023-04-21T11:21:18.444Z,1.00
2023-04-21T11:23:52.445Z,1.00
2023-04-21T11:26:31.353Z,1.00
2023-04-21T11:29:03.919Z,1.00
2023-04-21T11:31:33.387Z,1.00
2023-04-21T11:34:07.307Z,1.00
2023-04-21T11:36:39.594Z,1.00
2023-04-21T11:39:10.461Z,1.00
2023-04-21T11:41:43.038Z,1.00
2023-04-21T11:44:14.030Z,1.00
2023-04-21T11:46:48.398Z,1.00
2023-04-21T11:49:20.414Z,1.00
2023-04-21T11:51:53.058Z,1.00
2023-04-21T11:54:24.652Z,1.00
2023-04-21T11:56:57.521Z,1.00
2023-04-21T11:59:26.814Z,1.00
2023-04-21T12:01:56.738Z,1.00
2023-04-21T12:04:29.487Z,1.00
2023-04-21T12:07:01.559Z,1.00
2023-04-21T12:09:31.459Z,1.00
2023-04-21T12:12:02.400Z,1.00
2023-04-21T12:14:36.259Z,1.00
2023-04-21T12:17:09.921Z,1.00
2023-04-21T12:19:42.534Z,1.00
2023-04-21T12:22:13.137Z,1.00
2023-04-21T12:24:43.722Z,1.00
2023-04-21T12:27:15.052Z,1.00
2023-04-21T12:29:44.278Z,1.00
2023-04-21T12:32:13.317Z,1.00
2023-04-21T12:34:44.855Z,1.00
2023-04-21T12:37:15.836Z,1.00
2023-04-21T12:39:45.015Z,1.00
2023-04-21T12:42:14.038Z,1.00
2023-04-21T12:44:43.004Z,1.00
2023-04-21T12:47:12.215Z,1.00
2023-04-21T12:49:43.143Z,1.00
2023-04-21T12:52:12.359Z,1.00
2023-04-21T12:54:41.421Z,1.00
2023-04-21T12:57:10.681Z,1.00
2023-04-21T12:59:39.685Z,1.00
2023-04-21T13:02:08.961Z,1.00
2023-04-21T13:04:39.411Z,1.00
2023-04-21T13:07:09.969Z,1.00
2023-04-21T13:09:39.183Z,1.00
2023-04-21T13:12:08.200Z,1.00
2023-04-21T13:14:38.208Z,1.00
2023-04-21T13:17:07.019Z,1.00
2023-04-21T13:19:36.633Z,1.00
2023-04-21T13:22:05.868Z,1.00
2023-04-21T13:24:36.459Z,1.00
2023-04-21T13:27:05.315Z,1.00
2023-04-21T13:29:35.405Z,1.00
2023-04-21T13:32:05.314Z,1.00
2023-04-21T13:34:35.036Z,1.00
2023-04-21T13:37:04.129Z,1.00
2023-04-21T13:39:33.301Z,1.00
2023-04-21T13:42:04.566Z,1.00
2023-04-21T13:44:33.905Z,1.00
2023-04-21T13:47:03.232Z,1.00
2023-04-21T13:49:33.295Z,1.00
2023-04-21T13:52:03.107Z,1.00
2023-04-21T13:54:32.323Z,1.00
2023-04-21T13:57:02.366Z,1.00
2023-04-21T13:59:33.247Z,1.00
2023-04-21T14:02:02.664Z,1.00
2023-04-21T14:04:32.023Z,1.00
2023-04-21T14:07:02.318Z,1.00
2023-04-21T14:09:31.651Z,1.00
2023-04-21T14:12:01.711Z,1.00
2023-04-21T14:17:06.827Z,1.00
2023-04-21T14:19:36.762Z,1.00
2023-04-21T14:22:06.219Z,1.00
2023-04-21T14:24:35.401Z,1.00
2023-04-21T14:27:04.656Z,1.00
2023-04-21T14:29:35.610Z,1.00
2023-04-21T14:32:05.169Z,1.00
2023-04-21T14:34:34.652Z,1.00
2023-04-21T14:37:03.946Z,1.00
2023-04-21T14:39:34.650Z,1.00
2023-04-21T14:42:03.945Z,1.00
2023-04-21T14:44:35.905Z,1.00
2023-04-21T14:47:09.760Z,1.00
2023-04-21T14:49:40.203Z,1.00
2023-04-21T14:52:09.684Z,1.00
2023-04-21T14:54:38.636Z,1.00
2023-04-21T14:57:19.947Z,1.00
2023-04-21T14:59:53.568Z,1.00
2023-04-21T15:02:23.338Z,1.00
2023-04-21T15:04:52.772Z,1.00
2023-04-21T15:07:23.731Z,1.00
2023-04-21T15:09:53.520Z,1.00
2023-04-21T15:12:23.167Z,1.00
2023-04-21T15:14:54.019Z,1.00
2023-04-21T15:17:23.113Z,1.00
2023-04-21T15:19:52.155Z,1.00
2023-04-21T15:22:21.532Z,1.00
2023-04-21T15:24:52.394Z,1.00
2023-04-21T15:27:23.669Z,1.00
2023-04-21T15:29:54.421Z,1.00
2023-04-21T15:32:23.481Z,1.00
2023-04-21T15:34:52.517Z,1.00
2023-04-21T15:37:24.204Z,1.00
2023-04-21T15:39:54.530Z,1.00
2023-04-21T15:42:24.007Z,1.00
2023-04-21T15:44:54.788Z,1.00
2023-04-21T15:47:24.338Z,1.00
2023-04-21T15:49:53.435Z,1.00
2023-04-21T15:52:22.390Z,1.00
2023-04-21T15:54:51.344Z,1.00
2023-04-21T15:57:20.476Z,1.00
2023-04-21T15:59:49.707Z,1.00
2023-04-21T16:02:21.786Z,1.00
2023-04-21T16:04:51.234Z,1.00
2023-04-21T16:07:20.404Z,1.00
2023-04-21T16:09:49.608Z,1.00
2023-04-21T16:12:18.880Z,1.00
2023-04-21T16:14:57.495Z,1.00
2023-04-21T16:17:32.333Z,1.00
2023-04-21T16:20:01.360Z,1.00
2023-04-21T16:22:30.197Z,1.00
2023-04-21T16:25:00.932Z,1.00
2023-04-21T16:27:30.081Z,1.00
2023-04-21T16:29:58.989Z,1.00
2023-04-21T16:32:28.354Z,1.00
2023-04-21T16:34:59.548Z,1.00
2023-04-21T16:37:28.904Z,1.00
2023-04-21T16:39:57.976Z,1.00
2023-04-21T16:42:26.880Z,1.00
2023-04-21T16:44:59.371Z,1.00
2023-04-21T16:47:28.470Z,1.00
2023-04-21T16:49:59.317Z,1.00
2023-04-21T16:52:28.535Z,1.00
2023-04-21T16:54:57.505Z,1.00
2023-04-21T16:57:26.515Z,1.00
2023-04-21T16:59:55.632Z,1.00
2023-04-21T17:02:25.192Z,1.00
2023-04-21T17:04:54.173Z,1.00
2023-04-21T17:07:24.634Z,1.00
2023-04-21T17:09:53.684Z,1.00
2023-04-21T17:12:22.631Z,1.00
2023-04-21T17:14:51.579Z,1.00
2023-04-21T17:17:20.512Z,1.00
2023-04-21T17:19:49.382Z,1.00
2023-04-21T17:22:18.193Z,1.00
2023-04-21T17:24:53.700Z,1.00
2023-04-21T17:27:23.286Z,1.00
2023-04-21T17:29:52.196Z,1.00
2023-04-21T17:32:21.025Z,1.00
2023-04-21T17:34:50.194Z,1.00
2023-04-21T17:37:19.229Z,1.00
2023-04-21T17:39:49.949Z,1.00
2023-04-21T17:42:19.267Z,1.00
2023-04-21T17:44:48.224Z,1.00
2023-04-21T17:47:17.147Z,1.00
2023-04-21T17:49:46.564Z,1.00
2023-04-21T17:52:17.102Z,1.00
2023-04-21T17:54:51.718Z,1.00
2023-04-21T17:57:21.584Z,1.00
2023-04-21T17:59:51.172Z,1.00
2023-04-21T18:02:21.905Z,1.00
2023-04-21T18:04:52.233Z,1.00
2023-04-21T18:07:22.108Z,1.00
2023-04-21T18:09:52.722Z,1.00
2023-04-21T18:12:21.787Z,1.00
2023-04-21T18:14:50.730Z,1.00
2023-04-21T18:17:20.591Z,1.00
2023-04-21T18:19:50.185Z,1.00
2023-04-21T18:22:19.674Z,1.00
2023-04-21T18:24:49.380Z,1.00
2023-04-21T18:27:23.192Z,1.00
2023-04-21T18:29:53.792Z,1.00
2023-04-21T18:32:24.848Z,1.00
2023-04-21T18:34:54.655Z,1.00
2023-04-21T18:37:24.149Z,1.00
2023-04-21T18:39:54.922Z,1.00
2023-04-21T18:42:27.798Z,1.00
2023-04-21T18:45:04.244Z,1.00
2023-04-21T18:47:37.153Z,1.00
2023-04-21T18:50:09.412Z,1.00
2023-04-21T18:52:39.717Z,1.00
2023-04-21T18:55:11.488Z,1.00
2023-04-21T18:57:42.595Z,1.00
2023-04-21T19:00:14.126Z,1.00
2023-04-21T19:02:45.483Z,1.00
2023-04-21T19:05:15.101Z,1.00
2023-04-21T19:07:47.751Z,1.00
2023-04-21T19:10:20.882Z,1.00
2023-04-21T19:12:54.794Z,1.00
2023-04-21T19:15:25.192Z,1.00
2023-04-21T19:17:55.385Z,1.00
2023-04-21T19:20:24.370Z,1.00
2023-04-21T19:22:54.400Z,1.00
2023-04-21T19:25:24.435Z,1.00
2023-04-21T19:27:58.317Z,1.00
2023-04-21T19:30:28.976Z,1.00
2023-04-21T19:32:58.673Z,1.00
2023-04-21T19:35:29.593Z,1.00
2023-04-21T19:37:59.995Z,1.00
2023-04-21T19:40:30.474Z,1.00
2023-04-21T19:43:01.082Z,1.00
2023-04-21T19:45:30.920Z,1.00
2023-04-21T19:47:59.955Z,1.00
2023-04-21T19:50:29.567Z,1.00
2023-04-21T19:52:59.150Z,1.00
2023-04-21T19:55:29.556Z,1.00
2023-04-21T19:58:07.815Z,1.00
2023-04-21T20:00:41.707Z,1.00
2023-04-21T20:03:12.973Z,1.00
2023-04-21T20:05:45.421Z,1.00
2023-04-21T20:08:16.645Z,1.00
2023-04-21T20:10:48.287Z,1.00
2023-04-21T20:13:34.722Z,1.00
2023-04-21T20:16:10.162Z,1.00
2023-04-21T20:18:41.621Z,1.00
2023-04-21T20:21:14.554Z,1.00
2023-04-21T20:23:47.100Z,1.00
2023-04-21T20:26:19.832Z,1.00
2023-04-21T20:28:54.966Z,1.00
2023-04-21T20:31:26.436Z,1.00
2023-04-21T20:33:58.872Z,1.00
2023-04-21T20:36:30.669Z,1.00
2023-04-21T20:39:00.755Z,1.00
2023-04-21T20:41:29.777Z,1.00
2023-04-21T20:44:02.728Z,1.00
2023-04-21T20:46:31.751Z,1.00
2023-04-21T20:49:01.651Z,1.00
2023-04-21T20:51:31.112Z,1.00
2023-04-21T20:54:00.444Z,1.00
2023-04-21T20:56:30.010Z,1.00
2023-04-21T20:59:01.198Z,1.00
2023-04-21T21:01:43.951Z,1.00
2023-04-21T21:04:14.297Z,1.00
2023-04-21T21:06:43.824Z,1.00
2023-04-21T21:09:13.005Z,1.00
2023-04-21T21:11:41.986Z,1.00
2023-04-21T21:14:12.437Z,1.00
2023-04-21T21:16:41.743Z,1.00
2023-04-21T21:19:12.902Z,1.00
2023-04-21T21:21:41.730Z,1.00
2023-04-21T21:24:11.759Z,1.00
2023-04-21T21:26:42.868Z,1.00
2023-04-21T21:29:13.365Z,1.00
2023-04-21T21:31:42.127Z,1.00
2023-04-21T21:34:11.330Z,1.00
2023-04-21T21:36:40.133Z,1.00
2023-04-21T21:39:11.190Z,1.00
2023-04-21T21:41:40.304Z,1.00
2023-04-21T21:44:09.162Z,1.00
2023-04-21T21:46:39.812Z,1.00
2023-04-21T21:49:08.749Z,1.00
2023-04-21T21:51:37.639Z,1.00
2023-04-21T21:54:06.967Z,1.00
2023-04-21T21:56:36.774Z,1.00
2023-04-21T21:59:05.939Z,1.00
2023-04-21T22:01:34.952Z,1.00
2023-04-21T22:04:05.667Z,1.00
2023-04-21T22:06:35.247Z,1.00
2023-04-21T22:09:05.333Z,1.00
2023-04-21T22:11:34.215Z,1.00
2023-04-21T22:14:18.652Z,1.00
2023-04-21T22:16:51.413Z,1.00
2023-04-21T22:19:21.925Z,1.00
2023-04-21T22:21:51.073Z,1.00
2023-04-21T22:24:20.139Z,1.00
2023-04-21T22:26:49.351Z,1.00
2023-04-21T22:29:18.297Z,1.00
2023-04-21T22:31:47.309Z,1.00
2023-04-21T22:34:17.009Z,1.00
2023-04-21T22:36:47.302Z,1.00
2023-04-21T22:39:16.177Z,1.00
2023-04-21T22:41:45.106Z,1.00
2023-04-21T22:44:14.747Z,20.80
2023-04-21T22:46:43.800Z,55.90
2023-04-21T22:49:12.604Z,19.70
2023-04-21T22:51:42.533Z,39.10
2023-04-21T22:54:12.816Z,20.70
2023-04-21T22:56:41.721Z,28.00
2023-04-21T22:59:10.574Z,57.40
2023-04-21T23:01:39.454Z,43.30
2023-04-21T23:04:08.489Z,65.20
2023-04-21T23:06:37.641Z,93.60
2023-04-21T23:09:06.538Z,99.90
2023-04-21T23:11:36.919Z,27.90
2023-04-21T23:14:05.816Z,6.90
2023-04-21T23:16:34.639Z,33.20
2023-04-21T23:19:03.701Z,10.40
2023-04-21T23:21:33.139Z,33.70
2023-04-21T23:24:02.021Z,33.40
2023-04-21T23:26:30.859Z,19.60
2023-04-21T23:29:01.206Z,7.60
2023-04-21T23:31:30.873Z,11.60
2023-04-21T23:34:00.352Z,23.90
2023-04-21T23:36:29.322Z,99.90
2023-04-21T23:38:58.154Z,99.90
2023-04-21T23:41:27.131Z,82.70
2023-04-21T23:43:56.094Z,39.90
2023-04-21T23:46:26.554Z,51.40
2023-04-21T23:48:55.402Z,93.60
2023-04-21T23:51:24.361Z,92.50
2023-04-21T23:53:53.192Z,19.30
2023-04-21T23:56:22.524Z,27.40
2023-04-21T23:58:51.902Z,99.90
